createdAt,value
2022-11-03T00:01:20.377Z,100.00
2022-11-03T00:04:26.135Z,100.00
2022-11-03T00:07:32.013Z,100.00
2022-11-03T00:10:37.840Z,100.00
2022-11-03T00:13:44.881Z,100.00
2022-11-03T00:16:52.367Z,100.00
2022-11-03T00:19:58.544Z,100.00
2022-11-03T00:23:05.093Z,100.00
2022-11-03T00:26:14.537Z,100.00
2022-11-03T00:29:21.717Z,100.00
2022-11-03T00:32:29.122Z,100.00
2022-11-03T00:35:35.585Z,100.00
2022-11-03T00:38:42.142Z,100.00
2022-11-03T00:41:48.761Z,100.00
2022-11-03T00:44:54.701Z,100.00
2022-11-03T00:48:20.205Z,100.00
2022-11-03T00:51:30.091Z,100.00
2022-11-03T00:54:36.298Z,100.00
2022-11-03T00:57:42.496Z,100.00
2022-11-03T01:00:49.009Z,100.00
2022-11-03T01:04:16.102Z,100.00
2022-11-03T01:07:22.651Z,100.00
2022-11-03T01:10:28.781Z,100.00
2022-11-03T01:13:34.868Z,100.00
2022-11-03T01:16:41.901Z,100.00
2022-11-03T01:19:49.666Z,100.00
2022-11-03T01:22:55.601Z,100.00
2022-11-03T01:26:06.044Z,100.00
2022-11-03T01:29:12.368Z,100.00
2022-11-03T01:32:18.964Z,100.00
2022-11-03T01:35:26.859Z,100.00
2022-11-03T01:38:34.005Z,100.00
2022-11-03T01:41:41.255Z,100.00
2022-11-03T01:44:50.060Z,100.00
2022-11-03T01:47:56.504Z,100.00
2022-11-03T01:51:06.773Z,100.00
2022-11-03T01:54:16.621Z,100.00
2022-11-03T01:57:28.521Z,100.00
2022-11-03T02:00:34.887Z,100.00
2022-11-03T02:03:44.408Z,100.00
2022-11-03T02:06:59.104Z,100.00
2022-11-03T02:10:06.872Z,100.00
2022-11-03T02:13:19.805Z,100.00
2022-11-03T02:16:30.506Z,100.00
2022-11-03T02:19:42.187Z,100.00
2022-11-03T02:23:19.381Z,100.00
2022-11-03T02:26:27.008Z,100.00
2022-11-03T02:29:33.396Z,100.00
2022-11-03T02:32:51.061Z,100.00
2022-11-03T02:36:02.862Z,100.00
2022-11-03T02:39:16.227Z,100.00
2022-11-03T02:42:25.829Z,100.00
2022-11-03T02:45:32.544Z,100.00
2022-11-03T02:48:38.991Z,100.00
2022-11-03T02:51:45.409Z,100.00
2022-11-03T02:54:53.396Z,100.00
2022-11-03T02:58:07.521Z,100.00
2022-11-03T03:01:19.013Z,100.00
2022-11-03T03:04:30.529Z,100.00
2022-11-03T03:07:42.758Z,100.00
2022-11-03T03:10:50.135Z,100.00
2022-11-03T03:13:57.718Z,100.00
2022-11-03T03:17:10.282Z,100.00
2022-11-03T03:20:24.464Z,100.00
2022-11-03T03:23:36.900Z,100.00
2022-11-03T03:26:46.191Z,100.00
2022-11-03T03:29:57.112Z,100.00
2022-11-03T03:33:06.141Z,100.00
2022-11-03T03:36:17.660Z,100.00
2022-11-03T03:39:27.060Z,100.00
2022-11-03T03:42:35.907Z,100.00
2022-11-03T03:45:45.582Z,100.00
2022-11-03T03:48:51.612Z,100.00
2022-11-03T03:51:57.866Z,100.00
2022-11-03T03:55:04.135Z,100.00
2022-11-03T03:58:13.423Z,100.00
2022-11-03T04:01:21.185Z,100.00
2022-11-03T04:04:27.347Z,100.00
2022-11-03T04:07:48.529Z,100.00
2022-11-03T04:11:12.245Z,100.00
2022-11-03T04:14:35.730Z,100.00
2022-11-03T04:18:03.461Z,100.00
2022-11-03T04:21:30.663Z,100.00
2022-11-03T04:24:36.577Z,100.00
2022-11-03T04:27:42.620Z,100.00
2022-11-03T04:30:48.854Z,100.00
2022-11-03T04:33:56.462Z,100.00
2022-11-03T04:37:03.073Z,100.00
2022-11-03T04:40:16.171Z,100.00
2022-11-03T04:43:25.955Z,100.00
2022-11-03T04:46:33.175Z,100.00
2022-11-03T04:49:40.904Z,100.00
2022-11-03T04:52:48.219Z,100.00
2022-11-03T04:55:56.167Z,100.00
2022-11-03T04:59:02.482Z,100.00
2022-11-03T05:02:14.504Z,100.00
2022-11-03T05:05:24.469Z,100.00
2022-11-03T05:08:30.561Z,100.00
2022-11-03T05:11:39.996Z,100.00
2022-11-03T05:14:46.257Z,100.00
2022-11-03T05:17:52.399Z,100.00
2022-11-03T05:21:02.511Z,100.00
2022-11-03T05:27:23.442Z,100.00
2022-11-03T05:30:29.665Z,100.00
2022-11-03T05:33:37.112Z,100.00
2022-11-03T05:36:44.955Z,100.00
2022-11-03T05:39:52.365Z,100.00
2022-11-03T05:43:02.325Z,100.00
2022-11-03T05:46:12.982Z,100.00
2022-11-03T05:49:20.371Z,100.00
2022-11-03T05:52:29.465Z,100.00
2022-11-03T05:55:37.070Z,100.00
2022-11-03T05:58:45.564Z,100.00
2022-11-03T06:01:53.217Z,100.00
2022-11-03T06:04:59.513Z,100.00
2022-11-03T06:08:20.446Z,100.00
2022-11-03T06:11:32.668Z,100.00
2022-11-03T06:14:38.929Z,100.00
2022-11-03T06:17:45.293Z,100.00
2022-11-03T06:20:53.986Z,100.00
2022-11-03T06:24:01.737Z,100.00
2022-11-03T06:27:11.921Z,100.00
2022-11-03T06:30:25.243Z,100.00
2022-11-03T06:33:35.159Z,100.00
2022-11-03T06:36:41.524Z,99.09
2022-11-03T06:39:49.853Z,98.12
2022-11-03T06:42:58.612Z,98.97
2022-11-03T06:46:14.303Z,95.95
2022-11-03T06:49:29.886Z,97.15
2022-11-03T06:52:42.933Z,96.17
2022-11-03T06:55:50.961Z,92.24
2022-11-03T06:58:58.689Z,91.79
2022-11-03T07:02:04.924Z,91.40
2022-11-03T07:05:23.041Z,93.42
2022-11-03T07:08:33.350Z,92.66
2022-11-03T07:11:45.117Z,91.27
2022-11-03T07:14:50.990Z,91.56
2022-11-03T07:17:57.012Z,90.81
2022-11-03T07:21:08.415Z,89.47
2022-11-03T07:24:20.145Z,84.58
2022-11-03T07:27:30.193Z,85.40
2022-11-03T07:30:37.757Z,84.95
2022-11-03T07:33:44.103Z,82.08
2022-11-03T07:36:55.663Z,81.66
2022-11-03T07:40:02.130Z,81.01
2022-11-03T07:43:17.490Z,77.34
2022-11-03T07:46:25.030Z,76.81
2022-11-03T07:49:32.008Z,75.90
2022-11-03T07:52:37.953Z,74.58
2022-11-03T07:55:45.896Z,71.29
2022-11-03T07:58:56.929Z,69.38
2022-11-03T08:02:04.247Z,68.29
2022-11-03T08:05:10.660Z,67.63
2022-11-03T08:08:16.890Z,65.93
2022-11-03T08:11:27.891Z,64.50
2022-11-03T08:14:38.046Z,64.25
2022-11-03T08:17:44.586Z,63.39
2022-11-03T08:20:50.686Z,60.91
2022-11-03T08:23:57.011Z,58.78
2022-11-03T08:27:03.610Z,59.22
2022-11-03T08:30:11.601Z,58.92
2022-11-03T08:33:18.105Z,58.68
2022-11-03T08:36:24.242Z,57.86
2022-11-03T08:39:31.445Z,57.71
2022-11-03T08:42:37.540Z,55.93
2022-11-03T08:45:44.675Z,53.82
2022-11-03T08:48:52.035Z,53.20
2022-11-03T08:51:58.227Z,51.40
2022-11-03T08:55:04.374Z,51.52
2022-11-03T08:58:10.675Z,51.91
2022-11-03T09:01:18.872Z,51.44
2022-11-03T09:04:24.948Z,51.18
2022-11-03T09:10:57.718Z,49.94
2022-11-03T09:14:04.543Z,50.02
2022-11-03T09:17:12.293Z,50.67
2022-11-03T09:20:18.670Z,51.49
2022-11-03T09:23:25.097Z,51.38
2022-11-03T09:26:31.251Z,51.58
2022-11-03T09:30:06.380Z,51.43
2022-11-03T09:33:05.146Z,51.26
2022-11-03T09:36:11.768Z,51.36
2022-11-03T09:39:18.257Z,51.49
2022-11-03T09:42:24.937Z,51.61
2022-11-03T09:45:31.044Z,50.90
2022-11-03T09:48:38.974Z,51.39
2022-11-03T09:51:46.008Z,51.35
2022-11-03T09:54:55.501Z,50.76
2022-11-03T09:58:07.650Z,50.62
2022-11-03T10:01:14.273Z,50.16
2022-11-03T10:04:27.119Z,48.87
2022-11-03T10:07:33.365Z,49.03
2022-11-03T10:10:41.498Z,48.45
2022-11-03T10:13:53.000Z,49.02
2022-11-03T10:17:01.086Z,48.67
2022-11-03T10:20:12.672Z,49.06
2022-11-03T10:23:19.214Z,49.05
2022-11-03T10:26:25.459Z,49.72
2022-11-03T10:29:37.244Z,48.31
2022-11-03T10:32:45.801Z,48.96
2022-11-03T10:35:53.403Z,48.28
2022-11-03T10:39:01.810Z,48.41
2022-11-03T10:42:17.661Z,47.75
2022-11-03T10:45:24.698Z,48.11
2022-11-03T10:48:33.094Z,48.05
2022-11-03T10:51:41.334Z,48.35
2022-11-03T10:54:47.911Z,48.48
2022-11-03T10:57:56.734Z,48.34
2022-11-03T11:01:03.215Z,48.29
2022-11-03T11:04:09.935Z,48.88
2022-11-03T11:07:28.209Z,49.05
2022-11-03T11:10:35.126Z,48.53
2022-11-03T11:13:41.925Z,48.01
2022-11-03T11:16:53.150Z,47.15
2022-11-03T11:20:43.973Z,48.31
2022-11-03T11:23:53.094Z,48.59
2022-11-03T11:26:59.123Z,48.26
2022-11-03T11:30:07.522Z,47.51
2022-11-03T11:33:15.793Z,48.18
2022-11-03T11:36:25.075Z,46.97
2022-11-03T11:39:47.909Z,48.05
2022-11-03T11:43:28.027Z,47.27
2022-11-03T11:46:42.398Z,46.16
2022-11-03T11:49:48.553Z,47.26
2022-11-03T11:52:59.196Z,45.82
2022-11-03T11:56:10.173Z,45.71
2022-11-03T11:59:24.623Z,46.42
2022-11-03T12:02:32.357Z,46.05
2022-11-03T12:05:38.770Z,45.21
2022-11-03T12:08:45.304Z,45.65
2022-11-03T12:11:56.448Z,44.98
2022-11-03T12:15:03.088Z,45.25
2022-11-03T12:18:31.965Z,45.18
2022-11-03T12:21:48.756Z,45.24
2022-11-03T12:24:56.185Z,45.84
2022-11-03T12:28:04.224Z,44.63
2022-11-03T12:31:10.595Z,44.38
2022-11-03T12:34:17.156Z,44.98
2022-11-03T12:37:23.937Z,44.43
2022-11-03T12:40:30.535Z,44.64
2022-11-03T12:43:38.620Z,45.08
2022-11-03T12:46:45.212Z,45.54
2022-11-03T12:49:51.542Z,45.64
2022-11-03T12:52:58.006Z,45.72
2022-11-03T12:56:04.359Z,44.89
2022-11-03T12:59:12.311Z,45.15
2022-11-03T13:02:18.922Z,45.33
2022-11-03T13:05:25.948Z,45.54
2022-11-03T13:08:32.314Z,46.16
2022-11-03T13:11:55.968Z,45.19
2022-11-03T13:15:05.138Z,45.14
2022-11-03T13:18:14.130Z,45.18
2022-11-03T13:21:20.633Z,43.76
2022-11-03T13:24:26.544Z,44.71
2022-11-03T13:27:32.451Z,45.09
2022-11-03T13:30:40.514Z,45.36
2022-11-03T13:33:46.926Z,46.37
2022-11-03T13:36:52.866Z,46.01
2022-11-03T13:39:59.069Z,46.07
2022-11-03T13:43:05.392Z,46.23
2022-11-03T13:46:13.516Z,47.15
2022-11-03T13:50:07.772Z,45.03
2022-11-03T13:52:47.772Z,43.50
2022-11-03T13:55:56.241Z,43.26
2022-11-03T14:05:58.923Z,44.34
2022-11-03T14:09:05.201Z,45.68
2022-11-03T14:12:29.128Z,45.21
2022-11-03T14:15:35.336Z,46.36
2022-11-03T14:18:43.053Z,44.57
2022-11-03T14:21:49.465Z,45.46
2022-11-03T14:24:55.633Z,45.16
2022-11-03T14:28:02.058Z,45.27
2022-11-03T14:31:08.692Z,45.62
2022-11-03T14:34:16.868Z,45.56
2022-11-03T14:37:25.532Z,45.83
2022-11-03T14:40:49.465Z,46.35
2022-11-03T14:43:55.581Z,48.13
2022-11-03T14:47:02.852Z,47.76
2022-11-03T14:50:11.171Z,49.42
2022-11-03T14:53:17.818Z,52.43
2022-11-03T14:56:23.981Z,54.43
2022-11-03T14:59:30.419Z,56.79
2022-11-03T15:02:37.197Z,54.92
2022-11-03T15:05:47.724Z,56.18
2022-11-03T15:08:56.613Z,56.98
2022-11-03T15:12:03.509Z,56.21
2022-11-03T15:15:11.426Z,57.44
2022-11-03T15:18:18.291Z,59.19
2022-11-03T15:21:26.146Z,58.76
2022-11-03T15:27:59.284Z,61.30
2022-11-03T15:31:05.710Z,63.26
2022-11-03T15:34:12.652Z,62.63
2022-11-03T15:37:20.717Z,63.73
2022-11-03T15:40:27.800Z,63.14
2022-11-03T15:43:33.870Z,64.03
2022-11-03T15:46:40.162Z,65.31
2022-11-03T15:49:46.521Z,64.77
2022-11-03T15:52:54.034Z,67.43
2022-11-03T15:56:00.454Z,67.47
2022-11-03T15:59:07.400Z,70.90
2022-11-03T16:02:35.721Z,72.39
2022-11-03T16:05:39.609Z,69.09
2022-11-03T16:08:47.549Z,70.39
2022-11-03T16:11:53.985Z,75.02
2022-11-03T16:15:00.093Z,73.73
2022-11-03T16:18:06.278Z,71.77
2022-11-03T16:21:12.823Z,71.89
2022-11-03T16:24:20.254Z,75.02
2022-11-03T16:27:26.486Z,73.41
2022-11-03T16:30:33.649Z,73.92
2022-11-03T16:33:39.873Z,74.95
2022-11-03T16:36:45.821Z,78.10
2022-11-03T16:39:53.709Z,78.42
2022-11-03T16:42:59.630Z,78.89
2022-11-03T16:46:05.915Z,75.38
2022-11-03T16:49:12.105Z,73.60
2022-11-03T16:52:18.653Z,75.10
2022-11-03T16:55:26.475Z,76.74
2022-11-03T16:58:33.329Z,76.04
2022-11-03T17:01:40.755Z,76.05
2022-11-03T17:04:49.449Z,77.24
2022-11-03T17:07:56.724Z,80.17
2022-11-03T17:11:05.021Z,80.26
2022-11-03T17:14:14.902Z,79.61
2022-11-03T17:17:21.746Z,79.65
2022-11-03T17:20:28.508Z,78.81
2022-11-03T17:23:34.691Z,80.57
2022-11-03T17:26:51.803Z,78.69
2022-11-03T17:30:02.171Z,77.96
2022-11-03T17:33:10.327Z,80.07
2022-11-03T17:36:16.745Z,82.10
2022-11-03T17:39:29.301Z,84.17
2022-11-03T17:42:37.282Z,85.56
2022-11-03T17:45:43.168Z,86.70
2022-11-03T17:48:49.445Z,85.52
2022-11-03T17:51:55.634Z,85.55
2022-11-03T17:55:04.604Z,86.61
2022-11-03T17:58:12.845Z,85.24
2022-11-03T18:01:23.441Z,84.26
2022-11-03T18:04:29.985Z,86.18
2022-11-03T18:07:36.014Z,86.29
2022-11-03T18:10:44.469Z,85.66
2022-11-03T18:13:51.121Z,83.81
2022-11-03T18:16:58.250Z,85.51
2022-11-03T18:20:04.931Z,89.55
2022-11-03T18:23:17.191Z,91.90
2022-11-03T18:26:24.938Z,94.24
2022-11-03T18:29:32.624Z,95.80
2022-11-03T18:32:40.336Z,96.07
2022-11-03T18:35:46.356Z,95.26
2022-11-03T18:38:57.238Z,95.27
2022-11-03T18:42:03.306Z,92.85
2022-11-03T18:45:14.732Z,95.33
2022-11-03T18:48:20.934Z,96.04
2022-11-03T18:51:27.299Z,97.52
2022-11-03T18:54:35.654Z,99.20
2022-11-03T18:57:42.420Z,99.53
2022-11-03T19:00:50.427Z,100.00
2022-11-03T19:03:57.537Z,100.00
2022-11-03T19:07:08.374Z,100.00
2022-11-03T19:10:18.067Z,100.00
2022-11-03T19:13:29.906Z,99.77
2022-11-03T19:16:39.812Z,99.35
2022-11-03T19:19:56.696Z,100.00
2022-11-03T19:23:02.880Z,100.00
2022-11-03T19:26:20.506Z,100.00
2022-11-03T19:29:29.821Z,100.00
2022-11-03T19:32:43.629Z,100.00
2022-11-03T19:35:50.859Z,100.00
2022-11-03T19:38:57.093Z,100.00
2022-11-03T19:42:29.034Z,100.00
2022-11-03T19:45:35.090Z,100.00
2022-11-03T19:48:42.686Z,100.00
2022-11-03T19:51:49.174Z,100.00
2022-11-03T19:54:55.818Z,100.00
2022-11-03T19:58:08.791Z,100.00
2022-11-03T20:01:15.361Z,100.00
2022-11-03T20:04:22.763Z,100.00
2022-11-03T20:07:31.877Z,100.00
2022-11-03T20:10:38.330Z,100.00
2022-11-03T20:13:44.957Z,100.00
2022-11-03T20:16:50.865Z,100.00
2022-11-03T20:19:58.364Z,100.00
2022-11-03T20:23:06.197Z,100.00
2022-11-03T20:26:15.376Z,100.00
2022-11-03T20:29:21.419Z,100.00
2022-11-03T20:32:27.247Z,100.00
2022-11-03T20:35:37.889Z,100.00
2022-11-03T20:38:44.257Z,100.00
2022-11-03T20:41:52.310Z,100.00
2022-11-03T20:44:58.642Z,100.00
2022-11-03T20:48:05.221Z,100.00
2022-11-03T20:51:16.224Z,100.00
2022-11-03T20:54:22.973Z,100.00
2022-11-03T20:57:29.114Z,100.00
2022-11-03T21:00:40.056Z,100.00
2022-11-03T21:03:58.920Z,100.00
2022-11-03T21:07:07.699Z,100.00
2022-11-03T21:10:20.170Z,100.00
2022-11-03T21:13:26.711Z,100.00
2022-11-03T21:16:50.255Z,100.00
2022-11-03T21:20:12.013Z,100.00
2022-11-03T21:23:23.631Z,100.00
2022-11-03T21:26:29.845Z,100.00
2022-11-03T21:30:05.295Z,100.00
2022-11-03T21:33:02.441Z,100.00
2022-11-03T21:36:09.270Z,100.00
2022-11-03T21:39:16.734Z,100.00
2022-11-03T21:42:40.172Z,100.00
2022-11-03T21:45:46.441Z,100.00
2022-11-03T21:49:09.221Z,100.00
2022-11-03T21:52:17.416Z,100.00
2022-11-03T21:55:25.011Z,100.00
2022-11-03T21:58:31.408Z,100.00
2022-11-03T22:01:37.651Z,100.00
2022-11-03T22:04:44.047Z,100.00
2022-11-03T22:07:50.529Z,100.00
2022-11-03T22:11:18.631Z,100.00
2022-11-03T22:14:26.683Z,100.00
2022-11-03T22:17:32.233Z,100.00
2022-11-03T22:21:04.571Z,100.00
2022-11-03T22:24:28.062Z,100.00
2022-11-03T22:27:36.769Z,100.00
2022-11-03T22:31:15.088Z,100.00
2022-11-03T22:34:38.822Z,100.00
2022-11-03T22:37:44.760Z,100.00
2022-11-03T22:41:10.675Z,100.00
2022-11-03T22:44:35.705Z,100.00
2022-11-03T22:47:41.851Z,100.00
2022-11-03T22:50:48.228Z,100.00
2022-11-03T22:54:12.724Z,100.00
2022-11-03T22:57:19.029Z,100.00
2022-11-03T23:00:26.412Z,100.00
2022-11-03T23:03:33.676Z,100.00
2022-11-03T23:06:41.640Z,100.00
2022-11-03T23:09:47.928Z,100.00
2022-11-03T23:12:53.937Z,100.00
2022-11-03T23:16:01.314Z,100.00
2022-11-03T23:19:26.060Z,100.00
2022-11-03T23:22:31.921Z,100.00
2022-11-03T23:25:37.093Z,100.00
2022-11-03T23:28:44.413Z,100.00
2022-11-03T23:31:52.142Z,100.00
2022-11-03T23:34:58.017Z,100.00
2022-11-03T23:38:03.933Z,100.00
2022-11-03T23:41:12.650Z,100.00
2022-11-03T23:44:18.743Z,100.00
2022-11-03T23:47:44.010Z,100.00
2022-11-03T23:50:50.211Z,100.00
2022-11-03T23:53:57.602Z,100.00
2022-11-03T23:57:21.527Z,100.00
